sensor_id;sensor_type;location;lat;lon;timestamp;pressure;altitude;pressure_sealevel;temperature;humidity
17072;BME280;7731;50.720;6.912;2024-02-26T00:01:47;98196.47;;;7.12;95.57
17072;BME280;7731;50.720;6.912;2024-02-26T00:04:28;98192.88;;;7.02;100.00
17072;BME280;7731;50.720;6.912;2024-02-26T00:07:01;98196.16;;;7.04;99.98
17072;BME280;7731;50.720;6.912;2024-02-26T00:09:32;98191.66;;;6.94;100.00
17072;BME280;7731;50.720;6.912;2024-02-26T00:12:19;98187.78;;;7.02;100.00
17072;BME280;7731;50.720;6.912;2024-02-26T00:14:55;98198.88;;;6.75;100.00
17072;BME280;7731;50.720;6.912;2024-02-26T00:17:25;98196.13;;;6.78;100.00
17072;BME280;7731;50.720;6.912;2024-02-26T00:20:02;98189.00;;;6.83;100.00
17072;BME280;7731;50.720;6.912;2024-02-26T00:22:36;98184.47;;;6.74;100.00
17072;BME280;7731;50.720;6.912;2024-02-26T00:25:07;98180.22;;;6.74;100.00
17072;BME280;7731;50.720;6.912;2024-02-26T00:27:45;98176.91;;;6.59;100.00
17072;BME280;7731;50.720;6.912;2024-02-26T00:30:16;98180.06;;;6.50;100.00
17072;BME280;7731;50.720;6.912;2024-02-26T00:32:46;98178.41;;;6.36;100.00
17072;BME280;7731;50.720;6.912;2024-02-26T00:35:19;98177.78;;;6.33;100.00
17072;BME280;7731;50.720;6.912;2024-02-26T00:37:58;98169.94;;;6.36;100.00
17072;BME280;7731;50.720;6.912;2024-02-26T00:40:31;98170.28;;;6.30;100.00
17072;BME280;7731;50.720;6.912;2024-02-26T00:43:02;98167.59;;;6.33;100.00
17072;BME280;7731;50.720;6.912;2024-02-26T00:45:32;98170.13;;;6.33;100.00
17072;BME280;7731;50.720;6.912;2024-02-26T00:48:03;98166.22;;;6.27;100.00
17072;BME280;7731;50.720;6.912;2024-02-26T00:50:37;98158.47;;;6.29;100.00
17072;BME280;7731;50.720;6.912;2024-02-26T00:53:08;98161.22;;;6.25;100.00
17072;BME280;7731;50.720;6.912;2024-02-26T00:55:41;98165.97;;;6.17;100.00
17072;BME280;7731;50.720;6.912;2024-02-26T00:58:11;98178.00;;;6.15;100.00
17072;BME280;7731;50.720;6.912;2024-02-26T01:00:42;98177.41;;;6.12;100.00
17072;BME280;7731;50.720;6.912;2024-02-26T01:03:12;98177.50;;;6.10;100.00
17072;BME280;7731;50.720;6.912;2024-02-26T01:05:45;98183.69;;;6.06;100.00
17072;BME280;7731;50.720;6.912;2024-02-26T01:08:16;98167.41;;;6.08;100.00
17072;BME280;7731;50.720;6.912;2024-02-26T01:10:46;98170.94;;;6.06;100.00
17072;BME280;7731;50.720;6.912;2024-02-26T01:13:17;98171.13;;;6.03;100.00
17072;BME280;7731;50.720;6.912;2024-02-26T01:15:47;98168.19;;;6.09;100.00
17072;BME280;7731;50.720;6.912;2024-02-26T01:18:20;98174.94;;;6.10;100.00
17072;BME280;7731;50.720;6.912;2024-02-26T01:20:55;98171.66;;;6.08;100.00
17072;BME280;7731;50.720;6.912;2024-02-26T01:23:26;98167.69;;;6.04;100.00
17072;BME280;7731;50.720;6.912;2024-02-26T01:25:59;98163.69;;;6.00;100.00
17072;BME280;7731;50.720;6.912;2024-02-26T01:28:30;98155.47;;;5.95;100.00
17072;BME280;7731;50.720;6.912;2024-02-26T01:31:00;98168.31;;;5.93;100.00
17072;BME280;7731;50.720;6.912;2024-02-26T01:33:38;98159.50;;;5.84;100.00
17072;BME280;7731;50.720;6.912;2024-02-26T01:36:13;98162.34;;;5.80;100.00
17072;BME280;7731;50.720;6.912;2024-02-26T01:38:44;98152.06;;;5.81;100.00
17072;BME280;7731;50.720;6.912;2024-02-26T01:41:23;98154.06;;;5.76;100.00
17072;BME280;7731;50.720;6.912;2024-02-26T01:43:56;98148.22;;;5.74;100.00
17072;BME280;7731;50.720;6.912;2024-02-26T01:46:34;98146.63;;;5.73;100.00
17072;BME280;7731;50.720;6.912;2024-02-26T01:49:11;98152.25;;;5.78;100.00
17072;BME280;7731;50.720;6.912;2024-02-26T01:51:45;98142.94;;;5.77;100.00
17072;BME280;7731;50.720;6.912;2024-02-26T01:54:16;98138.03;;;5.74;100.00
17072;BME280;7731;50.720;6.912;2024-02-26T01:56:50;98144.97;;;5.72;100.00
17072;BME280;7731;50.720;6.912;2024-02-26T01:59:21;98141.16;;;5.79;100.00
17072;BME280;7731;50.720;6.912;2024-02-26T02:01:57;98139.69;;;5.75;100.00
17072;BME280;7731;50.720;6.912;2024-02-26T02:04:30;98141.66;;;5.84;100.00
17072;BME280;7731;50.720;6.912;2024-02-26T02:07:04;98141.84;;;5.81;100.00
17072;BME280;7731;50.720;6.912;2024-02-26T02:09:35;98151.34;;;5.79;100.00
17072;BME280;7731;50.720;6.912;2024-02-26T02:12:07;98133.13;;;5.71;100.00
17072;BME280;7731;50.720;6.912;2024-02-26T02:14:44;98142.94;;;5.77;100.00
17072;BME280;7731;50.720;6.912;2024-02-26T02:17:15;98132.22;;;5.72;100.00
17072;BME280;7731;50.720;6.912;2024-02-26T02:19:45;98137.53;;;5.69;100.00
17072;BME280;7731;50.720;6.912;2024-02-26T02:22:28;98129.25;;;5.65;100.00
17072;BME280;7731;50.720;6.912;2024-02-26T02:24:59;98129.34;;;5.64;100.00
17072;BME280;7731;50.720;6.912;2024-02-26T02:27:31;98130.44;;;5.60;100.00
17072;BME280;7731;50.720;6.912;2024-02-26T02:30:14;98125.63;;;5.55;100.00
17072;BME280;7731;50.720;6.912;2024-02-26T02:32:50;98125.53;;;5.57;100.00
17072;BME280;7731;50.720;6.912;2024-02-26T02:35:21;98135.38;;;5.48;100.00
17072;BME280;7731;50.720;6.912;2024-02-26T02:37:58;98134.53;;;5.48;100.00
17072;BME280;7731;50.720;6.912;2024-02-26T02:40:28;98140.56;;;5.47;100.00
17072;BME280;7731;50.720;6.912;2024-02-26T02:43:02;98144.22;;;5.43;100.00
17072;BME280;7731;50.720;6.912;2024-02-26T02:45:35;98146.66;;;5.44;100.00
17072;BME280;7731;50.720;6.912;2024-02-26T02:48:07;98147.75;;;5.54;100.00
17072;BME280;7731;50.720;6.912;2024-02-26T02:50:45;98159.13;;;5.49;100.00
17072;BME280;7731;50.720;6.912;2024-02-26T02:53:35;98155.19;;;5.43;100.00
17072;BME280;7731;50.720;6.912;2024-02-26T02:56:06;98157.66;;;5.45;100.00
17072;BME280;7731;50.720;6.912;2024-02-26T02:58:36;98160.75;;;5.35;100.00
17072;BME280;7731;50.720;6.912;2024-02-26T03:01:07;98151.91;;;5.55;100.00
17072;BME280;7731;50.720;6.912;2024-02-26T03:03:37;98149.38;;;5.55;100.00
17072;BME280;7731;50.720;6.912;2024-02-26T03:06:07;98148.09;;;5.63;100.00
17072;BME280;7731;50.720;6.912;2024-02-26T03:08:40;98145.97;;;5.69;100.00
17072;BME280;7731;50.720;6.912;2024-02-26T03:11:18;98143.31;;;5.71;100.00
17072;BME280;7731;50.720;6.912;2024-02-26T03:13:54;98144.25;;;5.70;100.00
17072;BME280;7731;50.720;6.912;2024-02-26T03:16:29;98145.06;;;5.70;100.00
17072;BME280;7731;50.720;6.912;2024-02-26T03:19:00;98143.13;;;5.74;100.00
17072;BME280;7731;50.720;6.912;2024-02-26T03:21:32;98148.22;;;5.74;100.00
17072;BME280;7731;50.720;6.912;2024-02-26T03:24:08;98139.50;;;5.78;100.00
17072;BME280;7731;50.720;6.912;2024-02-26T03:26:39;98133.97;;;5.71;100.00
17072;BME280;7731;50.720;6.912;2024-02-26T03:29:12;98140.88;;;5.69;100.00
17072;BME280;7731;50.720;6.912;2024-02-26T03:31:43;98141.72;;;5.70;100.00
17072;BME280;7731;50.720;6.912;2024-02-26T03:34:13;98133.69;;;5.76;100.00
17072;BME280;7731;50.720;6.912;2024-02-26T03:36:47;98145.16;;;5.69;100.00
17072;BME280;7731;50.720;6.912;2024-02-26T03:39:21;98131.34;;;5.73;100.00
17072;BME280;7731;50.720;6.912;2024-02-26T03:41:54;98133.78;;;5.75;100.00
17072;BME280;7731;50.720;6.912;2024-02-26T03:44:24;98140.94;;;5.82;100.00
17072;BME280;7731;50.720;6.912;2024-02-26T03:46:54;98135.66;;;5.85;100.00
17072;BME280;7731;50.720;6.912;2024-02-26T03:49:31;98142.28;;;5.88;100.00
17072;BME280;7731;50.720;6.912;2024-02-26T03:52:01;98147.66;;;5.83;100.00
17072;BME280;7731;50.720;6.912;2024-02-26T03:54:35;98156.06;;;5.85;100.00
17072;BME280;7731;50.720;6.912;2024-02-26T03:57:05;98159.00;;;5.65;100.00
17072;BME280;7731;50.720;6.912;2024-02-26T03:59:41;98163.91;;;5.68;100.00
17072;BME280;7731;50.720;6.912;2024-02-26T04:02:12;98167.84;;;5.59;100.00
17072;BME280;7731;50.720;6.912;2024-02-26T04:04:46;98174.03;;;5.55;100.00
17072;BME280;7731;50.720;6.912;2024-02-26T04:07:17;98178.31;;;5.54;100.00
17072;BME280;7731;50.720;6.912;2024-02-26T04:09:50;98171.56;;;5.53;100.00
17072;BME280;7731;50.720;6.912;2024-02-26T04:12:20;98165.09;;;5.62;100.00
17072;BME280;7731;50.720;6.912;2024-02-26T04:14:56;98162.84;;;5.58;100.00
17072;BME280;7731;50.720;6.912;2024-02-26T04:17:26;98167.56;;;5.64;100.00
17072;BME280;7731;50.720;6.912;2024-02-26T04:19:57;98162.09;;;5.70;100.00
17072;BME280;7731;50.720;6.912;2024-02-26T04:22:27;98170.13;;;5.91;100.00
17072;BME280;7731;50.720;6.912;2024-02-26T04:25:07;98162.75;;;5.86;100.00
17072;BME280;7731;50.720;6.912;2024-02-26T04:27:38;98168.78;;;5.85;100.00
17072;BME280;7731;50.720;6.912;2024-02-26T04:30:09;98161.53;;;5.79;100.00
17072;BME280;7731;50.720;6.912;2024-02-26T04:32:40;98151.53;;;5.76;100.00
17072;BME280;7731;50.720;6.912;2024-02-26T04:35:11;98162.34;;;5.80;100.00
17072;BME280;7731;50.720;6.912;2024-02-26T04:37:41;98168.28;;;5.66;100.00
17072;BME280;7731;50.720;6.912;2024-02-26T04:40:19;98172.38;;;5.54;100.00
17072;BME280;7731;50.720;6.912;2024-02-26T04:42:58;98174.03;;;5.55;100.00
17072;BME280;7731;50.720;6.912;2024-02-26T04:45:31;98175.66;;;5.56;100.00
17072;BME280;7731;50.720;6.912;2024-02-26T04:48:05;98167.94;;;5.58;100.00
17072;BME280;7731;50.720;6.912;2024-02-26T04:50:36;98166.81;;;5.62;100.00
17072;BME280;7731;50.720;6.912;2024-02-26T04:53:06;98176.47;;;5.57;100.00
17072;BME280;7731;50.720;6.912;2024-02-26T04:55:36;98171.19;;;5.60;100.00
17072;BME280;7731;50.720;6.912;2024-02-26T04:58:09;98168.75;;;5.58;100.00
17072;BME280;7731;50.720;6.912;2024-02-26T05:00:43;98159.72;;;5.52;100.00
17072;BME280;7731;50.720;6.912;2024-02-26T05:03:13;98168.13;;;5.54;100.00
17072;BME280;7731;50.720;6.912;2024-02-26T05:05:49;98162.84;;;5.43;100.00
17072;BME280;7731;50.720;6.912;2024-02-26T05:08:24;98162.56;;;5.48;100.00
17072;BME280;7731;50.720;6.912;2024-02-26T05:10:58;98154.72;;;5.51;100.00
17072;BME280;7731;50.720;6.912;2024-02-26T05:13:30;98158.56;;;5.58;100.00
17072;BME280;7731;50.720;6.912;2024-02-26T05:16:00;98161.19;;;5.57;100.00
17072;BME280;7731;50.720;6.912;2024-02-26T05:18:30;98163.13;;;5.53;100.00
17072;BME280;7731;50.720;6.912;2024-02-26T05:21:10;98155.75;;;5.48;100.00
17072;BME280;7731;50.720;6.912;2024-02-26T05:23:48;98157.38;;;5.64;100.00
17072;BME280;7731;50.720;6.912;2024-02-26T05:26:24;98166.63;;;5.65;100.00
17072;BME280;7731;50.720;6.912;2024-02-26T05:28:57;98161.72;;;5.62;100.00
17072;BME280;7731;50.720;6.912;2024-02-26T05:31:28;98167.19;;;5.55;100.00
17072;BME280;7731;50.720;6.912;2024-02-26T05:34:01;98177.09;;;5.60;100.00
17072;BME280;7731;50.720;6.912;2024-02-26T05:36:32;98169.38;;;5.62;100.00
17072;BME280;7731;50.720;6.912;2024-02-26T05:39:03;98175.50;;;5.59;100.00
17072;BME280;7731;50.720;6.912;2024-02-26T05:41:41;98171.38;;;5.57;100.00
17072;BME280;7731;50.720;6.912;2024-02-26T05:44:14;98174.94;;;5.54;100.00
17072;BME280;7731;50.720;6.912;2024-02-26T05:46:45;98184.31;;;5.53;100.00
17072;BME280;7731;50.720;6.912;2024-02-26T05:49:15;98178.13;;;5.58;100.00
17072;BME280;7731;50.720;6.912;2024-02-26T05:51:46;98184.22;;;5.55;100.00
17072;BME280;7731;50.720;6.912;2024-02-26T05:54:16;98183.41;;;5.54;100.00
17072;BME280;7731;50.720;6.912;2024-02-26T05:56:51;98184.31;;;5.53;100.00
17072;BME280;7731;50.720;6.912;2024-02-26T05:59:22;98183.41;;;5.54;100.00
17072;BME280;7731;50.720;6.912;2024-02-26T06:01:54;98190.59;;;5.62;100.00
17072;BME280;7731;50.720;6.912;2024-02-26T06:04:25;98194.78;;;5.49;100.00
17072;BME280;7731;50.720;6.912;2024-02-26T06:06:58;98194.41;;;5.55;100.00
17072;BME280;7731;50.720;6.912;2024-02-26T06:09:29;98202.69;;;5.44;100.00
17072;BME280;7731;50.720;6.912;2024-02-26T06:12:02;98201.94;;;5.57;100.00
17072;BME280;7731;50.720;6.912;2024-02-26T06:14:41;98201.25;;;5.54;100.00
17072;BME280;7731;50.720;6.912;2024-02-26T06:17:11;98205.59;;;5.52;100.00
17072;BME280;7731;50.720;6.912;2024-02-26T06:19:42;98207.75;;;5.59;100.00
17072;BME280;7731;50.720;6.912;2024-02-26T06:22:12;98217.50;;;5.52;100.00
17072;BME280;7731;50.720;6.912;2024-02-26T06:24:42;98214.16;;;5.51;100.00
17072;BME280;7731;50.720;6.912;2024-02-26T06:27:18;98217.78;;;5.47;100.00
17072;BME280;7731;50.720;6.912;2024-02-26T06:29:49;98216.69;;;5.51;100.00
17072;BME280;7731;50.720;6.912;2024-02-26T06:32:26;98228.78;;;5.48;100.00
17072;BME280;7731;50.720;6.912;2024-02-26T06:34:57;98231.16;;;5.51;100.00
17072;BME280;7731;50.720;6.912;2024-02-26T06:37:29;98227.44;;;5.42;100.00
17072;BME280;7731;50.720;6.912;2024-02-26T06:39:59;98229.97;;;5.42;100.00
17072;BME280;7731;50.720;6.912;2024-02-26T06:42:34;98235.16;;;5.41;100.00
17072;BME280;7731;50.720;6.912;2024-02-26T06:45:05;98236.69;;;5.43;100.00
17072;BME280;7731;50.720;6.912;2024-02-26T06:47:39;98244.16;;;5.46;100.00
17072;BME280;7731;50.720;6.912;2024-02-26T06:50:12;98240.34;;;5.39;100.00
17072;BME280;7731;50.720;6.912;2024-02-26T06:52:44;98250.19;;;5.45;100.00
17072;BME280;7731;50.720;6.912;2024-02-26T06:55:15;98257.72;;;5.47;100.00
17072;BME280;7731;50.720;6.912;2024-02-26T06:57:48;98263.00;;;5.44;100.00
17072;BME280;7731;50.720;6.912;2024-02-26T07:00:19;98258.91;;;5.41;100.00
17072;BME280;7731;50.720;6.912;2024-02-26T07:02:49;98260.25;;;5.32;100.00
17072;BME280;7731;50.720;6.912;2024-02-26T07:05:20;98264.53;;;5.32;100.00
17072;BME280;7731;50.720;6.912;2024-02-26T07:07:50;98266.16;;;5.33;100.00
17072;BME280;7731;50.720;6.912;2024-02-26T07:10:20;98262.34;;;5.40;100.00
17072;BME280;7731;50.720;6.912;2024-02-26T07:12:54;98268.28;;;5.41;100.00
17072;BME280;7731;50.720;6.912;2024-02-26T07:15:24;98274.25;;;5.40;100.00
17072;BME280;7731;50.720;6.912;2024-02-26T07:17:54;98274.88;;;5.43;100.00
17072;BME280;7731;50.720;6.912;2024-02-26T07:20:31;98283.47;;;5.42;100.00
17072;BME280;7731;50.720;6.912;2024-02-26T07:23:01;98278.91;;;5.33;100.00
17072;BME280;7731;50.720;6.912;2024-02-26T07:25:34;98287.97;;;5.37;100.00
17072;BME280;7731;50.720;6.912;2024-02-26T07:28:12;98285.53;;;5.35;100.00
17072;BME280;7731;50.720;6.912;2024-02-26T07:30:42;98279.44;;;5.38;100.00
17072;BME280;7731;50.720;6.912;2024-02-26T07:33:16;98287.09;;;5.38;100.00
17072;BME280;7731;50.720;6.912;2024-02-26T07:35:46;98284.19;;;5.44;100.00
17072;BME280;7731;50.720;6.912;2024-02-26T07:38:23;98297.81;;;5.43;100.00
17072;BME280;7731;50.720;6.912;2024-02-26T07:41:14;98289.81;;;5.49;100.00
17072;BME280;7731;50.720;6.912;2024-02-26T07:43:47;98293.28;;;5.48;100.00
17072;BME280;7731;50.720;6.912;2024-02-26T07:46:18;98294.91;;;5.49;100.00
17072;BME280;7731;50.720;6.912;2024-02-26T07:48:48;98300.34;;;5.43;100.00
17072;BME280;7731;50.720;6.912;2024-02-26T07:51:22;98302.91;;;5.43;100.00
17072;BME280;7731;50.720;6.912;2024-02-26T07:53:53;98305.63;;;5.40;100.00
17072;BME280;7731;50.720;6.912;2024-02-26T07:56:26;98310.94;;;5.51;100.00
17072;BME280;7731;50.720;6.912;2024-02-26T07:59:01;98324.03;;;5.45;100.00
17072;BME280;7731;50.720;6.912;2024-02-26T08:01:32;98317.66;;;5.52;100.00
17072;BME280;7731;50.720;6.912;2024-02-26T08:04:14;98322.75;;;5.52;100.00
17072;BME280;7731;50.720;6.912;2024-02-26T08:06:47;98322.28;;;5.46;100.00
17072;BME280;7731;50.720;6.912;2024-02-26T08:09:17;98321.47;;;5.45;100.00
17072;BME280;7731;50.720;6.912;2024-02-26T08:11:50;98326.41;;;5.48;100.00
17072;BME280;7731;50.720;6.912;2024-02-26T08:14:23;98325.13;;;5.55;100.00
17072;BME280;7731;50.720;6.912;2024-02-26T08:16:54;98337.84;;;5.55;100.00
17072;BME280;7731;50.720;6.912;2024-02-26T08:19:24;98347.41;;;5.52;100.00
17072;BME280;7731;50.720;6.912;2024-02-26T08:21:57;98348.97;;;5.54;100.00
17072;BME280;7731;50.720;6.912;2024-02-26T08:24:31;98348.97;;;5.54;100.00
17072;BME280;7731;50.720;6.912;2024-02-26T08:27:02;98344.34;;;5.61;100.00
17072;BME280;7731;50.720;6.912;2024-02-26T08:29:35;98357.88;;;5.62;100.00
17072;BME280;7731;50.720;6.912;2024-02-26T08:32:06;98354.31;;;5.50;100.00
17072;BME280;7731;50.720;6.912;2024-02-26T08:34:36;98361.53;;;5.58;100.00
17072;BME280;7731;50.720;6.912;2024-02-26T08:37:13;98366.81;;;5.54;100.00
17072;BME280;7731;50.720;6.912;2024-02-26T08:39:43;98368.81;;;5.64;100.00
17072;BME280;7731;50.720;6.912;2024-02-26T08:42:14;98366.91;;;5.67;100.00
17072;BME280;7731;50.720;6.912;2024-02-26T08:44:47;98371.72;;;5.58;100.00
17072;BME280;7731;50.720;6.912;2024-02-26T08:47:17;98374.63;;;5.51;100.00
17072;BME280;7731;50.720;6.912;2024-02-26T08:49:50;98377.72;;;5.57;100.00
17072;BME280;7731;50.720;6.912;2024-02-26T08:52:21;98377.53;;;5.60;100.00
17072;BME280;7731;50.720;6.912;2024-02-26T08:55:00;98377.53;;;5.60;100.00
17072;BME280;7731;50.720;6.912;2024-02-26T08:57:31;98379.72;;;5.51;100.00
17072;BME280;7731;50.720;6.912;2024-02-26T09:00:09;98393.25;;;5.52;100.00
17072;BME280;7731;50.720;6.912;2024-02-26T09:02:43;98389.06;;;5.51;100.00
17072;BME280;7731;50.720;6.912;2024-02-26T09:05:13;98401.16;;;5.47;100.00
17072;BME280;7731;50.720;6.912;2024-02-26T09:07:44;98399.59;;;5.75;100.00
17072;BME280;7731;50.720;6.912;2024-02-26T09:10:29;98401.06;;;5.79;100.00
17072;BME280;7731;50.720;6.912;2024-02-26T09:13:01;98406.78;;;5.83;100.00
17072;BME280;7731;50.720;6.912;2024-02-26T09:15:34;98410.84;;;5.71;100.00
17072;BME280;7731;50.720;6.912;2024-02-26T09:18:10;98414.06;;;5.75;100.00
17072;BME280;7731;50.720;6.912;2024-02-26T09:20:42;98412.75;;;5.67;100.00
17072;BME280;7731;50.720;6.912;2024-02-26T09:23:13;98413.75;;;5.65;100.00
17072;BME280;7731;50.720;6.912;2024-02-26T09:25:43;98423.59;;;5.71;100.00
17072;BME280;7731;50.720;6.912;2024-02-26T09:28:13;98412.38;;;5.59;100.00
17072;BME280;7731;50.720;6.912;2024-02-26T09:30:47;98418.63;;;5.53;100.00
17072;BME280;7731;50.720;6.912;2024-02-26T09:33:22;98424.88;;;5.48;100.00
17072;BME280;7731;50.720;6.912;2024-02-26T09:35:53;98419.94;;;5.61;100.00
17072;BME280;7731;50.720;6.912;2024-02-26T09:38:23;98424.50;;;5.70;100.00
17072;BME280;7731;50.720;6.912;2024-02-26T09:40:54;98426.72;;;5.76;100.00
17072;BME280;7731;50.720;6.912;2024-02-26T09:43:28;98431.97;;;5.73;100.00
17072;BME280;7731;50.720;6.912;2024-02-26T09:46:10;98430.13;;;5.61;100.00
17072;BME280;7731;50.720;6.912;2024-02-26T09:48:42;98432.34;;;5.67;100.00
17072;BME280;7731;50.720;6.912;2024-02-26T09:51:23;98439.81;;;5.84;100.00
17072;BME280;7731;50.720;6.912;2024-02-26T09:54:09;98444.38;;;5.79;100.00
17072;BME280;7731;50.720;6.912;2024-02-26T09:56:45;98441.53;;;6.00;100.00
17072;BME280;7731;50.720;6.912;2024-02-26T09:59:39;98452.44;;;6.02;100.00
17072;BME280;7731;50.720;6.912;2024-02-26T10:02:17;98463.84;;;6.11;100.00
17072;BME280;7731;50.720;6.912;2024-02-26T10:04:49;98462.13;;;6.25;100.00
17072;BME280;7731;50.720;6.912;2024-02-26T10:07:23;98457.88;;;6.40;100.00
17072;BME280;7731;50.720;6.912;2024-02-26T10:10:02;98452.47;;;6.59;100.00
17072;BME280;7731;50.720;6.912;2024-02-26T10:12:33;98457.56;;;6.74;100.00
17072;BME280;7731;50.720;6.912;2024-02-26T10:15:04;98456.59;;;6.62;100.00
17072;BME280;7731;50.720;6.912;2024-02-26T10:17:38;98464.28;;;6.89;100.00
17072;BME280;7731;50.720;6.912;2024-02-26T10:20:13;98459.03;;;6.64;100.00
17072;BME280;7731;50.720;6.912;2024-02-26T10:22:52;98467.28;;;6.82;100.00
17072;BME280;7731;50.720;6.912;2024-02-26T10:25:30;98472.88;;;6.74;100.00
17072;BME280;7731;50.720;6.912;2024-02-26T10:28:01;98472.69;;;6.77;100.00
17072;BME280;7731;50.720;6.912;2024-02-26T10:30:36;98478.19;;;6.56;100.00
17072;BME280;7731;50.720;6.912;2024-02-26T10:33:12;98483.72;;;6.63;100.00
17072;BME280;7731;50.720;6.912;2024-02-26T10:35:46;98489.44;;;6.95;100.00
17072;BME280;7731;50.720;6.912;2024-02-26T10:38:16;98476.75;;;6.94;100.00
17072;BME280;7731;50.720;6.912;2024-02-26T10:40:49;98484.97;;;6.99;100.00
17072;BME280;7731;50.720;6.912;2024-02-26T10:43:19;98490.38;;;6.94;100.00
17072;BME280;7731;50.720;6.912;2024-02-26T10:45:50;98490.19;;;6.97;100.00
17072;BME280;7731;50.720;6.912;2024-02-26T10:48:26;98494.53;;;6.95;100.00
17072;BME280;7731;50.720;6.912;2024-02-26T10:50:57;98505.88;;;6.77;100.00
17072;BME280;7731;50.720;6.912;2024-02-26T10:53:30;98503.50;;;6.88;100.00
17072;BME280;7731;50.720;6.912;2024-02-26T10:56:05;98517.34;;;6.84;100.00
17072;BME280;7731;50.720;6.912;2024-02-26T10:58:40;98515.81;;;6.67;100.00
17072;BME280;7731;50.720;6.912;2024-02-26T11:01:12;98515.00;;;6.67;100.00
17072;BME280;7731;50.720;6.912;2024-02-26T11:03:46;98510.41;;;6.86;100.00
17072;BME280;7731;50.720;6.912;2024-02-26T11:06:17;98512.63;;;6.64;100.00
17072;BME280;7731;50.720;6.912;2024-02-26T11:08:48;98520.63;;;6.86;100.00
17072;BME280;7731;50.720;6.912;2024-02-26T11:11:20;98535.59;;;6.78;100.00
17072;BME280;7731;50.720;6.912;2024-02-26T11:13:52;98532.84;;;6.81;100.00
17072;BME280;7731;50.720;6.912;2024-02-26T11:16:25;98531.19;;;6.80;100.00
17072;BME280;7731;50.720;6.912;2024-02-26T11:19:02;98542.88;;;6.84;100.00
17072;BME280;7731;50.720;6.912;2024-02-26T11:21:32;98544.34;;;6.74;100.00
17072;BME280;7731;50.720;6.912;2024-02-26T11:24:13;98551.44;;;6.83;100.00
17072;BME280;7731;50.720;6.912;2024-02-26T11:26:49;98546.44;;;6.67;100.00
17072;BME280;7731;50.720;6.912;2024-02-26T11:29:33;98553.81;;;6.72;100.00
17072;BME280;7731;50.720;6.912;2024-02-26T11:32:07;98555.47;;;6.73;100.00
17072;BME280;7731;50.720;6.912;2024-02-26T11:34:43;98554.34;;;6.77;100.00
17072;BME280;7731;50.720;6.912;2024-02-26T11:37:18;98557.47;;;6.82;100.00
17072;BME280;7731;50.720;6.912;2024-02-26T11:39:53;98557.00;;;6.75;100.00
17072;BME280;7731;50.720;6.912;2024-02-26T11:42:24;98546.88;;;6.74;100.00
17072;BME280;7731;50.720;6.912;2024-02-26T11:45:02;98551.81;;;6.91;100.00
17072;BME280;7731;50.720;6.912;2024-02-26T11:47:35;98559.47;;;7.06;100.00
17072;BME280;7731;50.720;6.912;2024-02-26T11:50:41;98549.91;;;6.95;100.00
17072;BME280;7731;50.720;6.912;2024-02-26T11:53:23;98555.25;;;7.05;100.00
17072;BME280;7731;50.720;6.912;2024-02-26T11:56:22;98551.44;;;7.12;100.00
17072;BME280;7731;50.720;6.912;2024-02-26T11:59:01;98556.72;;;6.80;100.00
17072;BME280;7731;50.720;6.912;2024-02-26T12:01:43;98551.06;;;6.89;100.00
17072;BME280;7731;50.720;6.912;2024-02-26T12:04:19;98556.19;;;6.89;100.00
17072;BME280;7731;50.720;6.912;2024-02-26T12:06:57;98561.84;;;7.09;100.00
17072;BME280;7731;50.720;6.912;2024-02-26T12:09:40;98560.28;;;7.21;100.00
17072;BME280;7731;50.720;6.912;2024-02-26T12:12:18;98569.28;;;7.26;100.00
17072;BME280;7731;50.720;6.912;2024-02-26T12:14:53;98584.78;;;7.23;100.00
17072;BME280;7731;50.720;6.912;2024-02-26T12:17:28;98577.78;;;7.12;100.00
17072;BME280;7731;50.720;6.912;2024-02-26T12:20:09;98595.31;;;7.04;100.00
17072;BME280;7731;50.720;6.912;2024-02-26T12:22:49;98584.28;;;7.04;100.00
17072;BME280;7731;50.720;6.912;2024-02-26T12:25:23;98589.47;;;7.17;100.00
17072;BME280;7731;50.720;6.912;2024-02-26T12:27:55;98593.75;;;7.16;100.00
17072;BME280;7731;50.720;6.912;2024-02-26T12:30:26;98592.44;;;7.38;100.00
17072;BME280;7731;50.720;6.912;2024-02-26T12:33:03;98604.31;;;7.39;100.00
17072;BME280;7731;50.720;6.912;2024-02-26T12:35:44;98610.91;;;7.28;100.00
17072;BME280;7731;50.720;6.912;2024-02-26T12:38:20;98615.06;;;7.29;100.00
17072;BME280;7731;50.720;6.912;2024-02-26T12:40:54;98607.78;;;7.09;100.00
17072;BME280;7731;50.720;6.912;2024-02-26T12:43:28;98619.00;;;7.06;100.00
17072;BME280;7731;50.720;6.912;2024-02-26T12:45:58;98620.38;;;6.97;100.00
17072;BME280;7731;50.720;6.912;2024-02-26T12:48:33;98625.66;;;7.23;100.00
17072;BME280;7731;50.720;6.912;2024-02-26T12:51:04;98633.50;;;7.35;100.00
17072;BME280;7731;50.720;6.912;2024-02-26T12:53:38;98631.50;;;7.40;100.00
17072;BME280;7731;50.720;6.912;2024-02-26T12:56:10;98633.69;;;7.31;100.00
17072;BME280;7731;50.720;6.912;2024-02-26T12:58:42;98640.44;;;7.32;100.00
17072;BME280;7731;50.720;6.912;2024-02-26T13:01:17;98637.09;;;7.18;100.00
17072;BME280;7731;50.720;6.912;2024-02-26T13:03:49;98645.75;;;7.15;100.00
17072;BME280;7731;50.720;6.912;2024-02-26T13:06:22;98649.47;;;7.09;100.00
17072;BME280;7731;50.720;6.912;2024-02-26T13:09:00;98651.31;;;7.07;100.00
17072;BME280;7731;50.720;6.912;2024-02-26T13:11:30;98657.03;;;7.11;100.00
17072;BME280;7731;50.720;6.912;2024-02-26T13:14:01;98660.88;;;7.18;100.00
17072;BME280;7731;50.720;6.912;2024-02-26T13:16:39;98661.25;;;6.97;100.00
17072;BME280;7731;50.720;6.912;2024-02-26T13:19:21;98674.72;;;6.85;100.00
17072;BME280;7731;50.720;6.912;2024-02-26T13:21:55;98675.34;;;6.89;100.00
17072;BME280;7731;50.720;6.912;2024-02-26T13:24:31;98670.06;;;6.92;100.00
17072;BME280;7731;50.720;6.912;2024-02-26T13:27:04;98674.38;;;6.61;100.00
17072;BME280;7731;50.720;6.912;2024-02-26T13:29:35;98680.44;;;6.74;100.00
17072;BME280;7731;50.720;6.912;2024-02-26T13:32:06;98677.97;;;6.73;100.00
17072;BME280;7731;50.720;6.912;2024-02-26T13:34:36;98682.81;;;6.77;100.00
17072;BME280;7731;50.720;6.912;2024-02-26T13:37:07;98677.63;;;6.79;100.00
17072;BME280;7731;50.720;6.912;2024-02-26T13:39:46;98683.81;;;6.89;100.00
17072;BME280;7731;50.720;6.912;2024-02-26T13:42:16;98681.00;;;6.79;100.00
17072;BME280;7731;50.720;6.912;2024-02-26T13:44:47;98693.22;;;6.89;100.00